KEQA

El Dorado / Captain Jack Thomas Memorial Airport

El Dorado, Kansas, USA
METAR KEQA 181955Z AUTO 25009KT 090V030 10SM CLR 12/02 A3003 RMK AO2
Observed Flight Rules
Dec-18 @ 19:55 UTC (23 minutes ago) Visual Flight Rules
Wind Visibility Clouds
250° at 9 knots 10 miles
  • Clear skies
Temperatures Readings
Current 12°C / 54°F
Dewpoint 2°C / 36°F
Humidity 51%
Altimeter 30.03" Hg
Pressure 1017 hPa
Elevation 420
METAR KEQA 181955Z AUTO 25009KT 090V030 10SM CLR 12/02 A3003 RMK AO2
Observed Flight Rules
Dec-18 @ 19:55 UTC
(23 minutes ago)
VFR
Wind Visibility
250° at 9 knots 10 miles
Clouds
  • Clear skies
Temperature Dewpoint
12°C / 54°F 2°C / 36°F
Humidity Altimeter Pressure
51% 30.03" Hg 1017 hPa